Terminal Aerodrome Forecast
Issued by NWS

Home | Current Version | Previous Version | Graphics & Text | Print | Product List | Glossary On
Versions: 1 2 3 4 5 6 7 8 9 10 11 12 13 14 15 16 17
000
FTUS45 KGGW 071100
TAFSDY
TAF
KSDY 071124Z 0712/0812 VRB06KT 2SM FU BKN080
     FM071500 VRB05KT 5SM FU BKN070
     FM072300 35013KT P6SM BKN080
     FM080400 33008KT P6SM SCT100
      AMD LTD TO CLD VIS AND WIND=

USA.gov is the U.S. government's official web portal to all federal, state and local government web resources and services.